Latest Weather Observations for Cobar

IDN60801

Issued at 3:42 am EDT Wednesday 20 February 2019 (issued every 10 minutes, with the page automatically refreshed every 10 minutes)

About weather observations | Map of weather stations | Latest weather observations for NSW | Other Formats
Station Details ID: 048027 Name: COBAR MO Lat: -31.48 Lon: 145.83 Height: 260.0 m
Data from the previous 72 hours. | See also: Recent months at Cobar
Date/Time
EDT
Temp
°C
App
Temp
°C
Dew
Point
°C
Rel
Hum
%
Delta-T
°C
Wind Press
QNH
hPa
Press
MSL
hPa
Rain since
9am
mm
Dir  Spd
km/h
Gust
km/h
Spd
kts
Gust
kts
20/03:30am 17.2 13.3 -1.4 28 7.9 SSW 9 9 5 5 1011.4 1009.8 0.0
20/03:00am 17.9 13.9 -1.9 26 8.4 SSW 9 11 5 6 1011.6 1010.0 0.0
20/02:30am 18.4 14.4 -2.0 25 8.7 SSW 9 11 5 6 1011.7 1010.1 0.0
20/02:00am 19.1 15.4 -2.5 23 9.1 SSW 7 9 4 5 1011.7 1010.1 0.0
20/01:30am 20.7 16.7 -2.4 21 9.9 SSW 9 15 5 8 1011.8 1010.2 0.0
20/01:00am 21.1 17.0 -2.7 20 10.2 SSW 9 15 5 8 1011.9 1010.3 0.0
20/12:30am 22.1 17.2 -3.3 18 10.9 SSW 13 15 7 8 1012.1 1010.5 0.0
20/12:00am 22.6 18.0 -3.7 17 11.2 SSW 11 15 6 8 1012.0 1010.4 0.0
 
Date/Time
EDT
Temp
°C
App
Temp
°C
Dew
Point
°C
Rel
Hum
%
Delta-T
°C
Wind Press
QNH
hPa
Press
MSL
hPa
Rain since
9am
mm
Dir  Spd
km/h
Gust
km/h
Spd
kts
Gust
kts
19/11:30pm 23.6 18.7 -3.7 16 11.7 SSW 13 17 7 9 1011.9 1010.3 0.0
19/11:00pm 24.2 18.9 -4.0 15 12.1 SW 15 20 8 11 1011.8 1010.2 0.0
19/10:30pm 25.1 19.7 -4.2 14 12.6 SSW 15 22 8 12 1011.7 1010.1 0.0
19/10:00pm 25.8 20.1 -3.7 14 12.9 SSW 17 26 9 14 1011.4 1009.8 0.0
19/09:30pm 26.6 21.6 -4.0 13 13.4 SSW 13 20 7 11 1011.0 1009.4 0.0
19/09:00pm 27.2 22.3 -3.6 13 13.7 SSW 13 20 7 11 1010.5 1008.9 0.0
19/08:30pm 28.0 22.7 -4.0 12 14.2 SSW 15 20 8 11 1010.0 1008.4 0.0
19/08:00pm 28.8 23.0 -4.6 11 14.8 SSW 17 30 9 16 1009.6 1008.0 0.0
19/07:30pm 29.7 23.4 -3.9 11 15.1 SSW 20 30 11 16 1009.0 1007.3 0.0
19/07:00pm 30.6 24.4 -3.2 11 15.6 SSW 20 30 11 16 1008.8 1007.1 0.0
19/06:30pm 31.2 25.4 -1.5 12 15.5 SSW 19 30 10 16 1008.5 1006.8 0.0
19/06:00pm 31.8 26.0 0.0 13 15.6 SSW 20 32 11 17 1008.2 1006.6 0.0
19/05:30pm 31.9 26.5 1.1 14 15.4 SSW 19 30 10 16 1008.1 1006.5 0.0
19/05:00pm 31.5 25.8 0.8 14 15.2 S 20 28 11 15 1007.9 1006.3 0.0
19/04:30pm 32.2 26.6 1.3 14 15.5 SSW 20 33 11 18 1007.9 1006.3 0.0
19/04:00pm 32.2 26.9 3.2 16 15.0 SSW 20 30 11 16 1008.0 1006.4 0.0
19/03:30pm 31.7 26.5 3.7 17 14.6 S 20 33 11 18 1008.4 1006.7 0.0
19/03:00pm 30.7 25.7 3.7 18 14.0 S 19 32 10 17 1008.6 1006.9 0.0
19/02:30pm 30.5 25.9 5.7 21 13.2 S 19 30 10 16 1008.8 1007.1 0.0
19/02:00pm 30.1 25.3 7.3 24 12.5 SSW 22 33 12 18 1009.0 1007.3 0.0
19/01:30pm 30.0 25.5 8.4 26 12.0 SSW 22 35 12 19 1009.2 1007.5 0.0
19/01:00pm 29.5 25.4 8.0 26 11.9 S 19 28 10 15 1009.4 1007.8 0.0
19/12:30pm 28.6 23.9 7.8 27 11.4 SSW 22 33 12 18 1009.6 1008.0 0.0
19/12:00pm 28.3 24.2 8.6 29 10.9 S 20 32 11 17 1009.8 1008.2 0.0
19/11:30am 27.1 22.5 8.0 30 10.4 S 22 33 12 18 1009.9 1008.3 0.0
19/11:00am 26.4 22.2 8.4 32 9.9 SSW 20 32 11 17 1010.0 1008.4 0.0
19/10:30am 25.8 21.2 8.3 33 9.5 S 22 33 12 18 1009.8 1008.2 0.0
19/10:00am 25.1 20.9 8.1 34 9.2 S 20 28 11 15 1009.6 1008.0 0.0
19/09:30am 24.6 20.4 8.1 35 8.9 S 20 32 11 17 1009.5 1007.9 0.0
19/09:00am 23.9 19.2 7.9 36 8.6 S 22 33 12 18 1009.4 1007.8 0.0
19/08:30am 23.6 19.4 7.3 35 8.6 S 19 28 10 15 1009.1 1007.4 0.0
19/08:00am 23.0 19.0 6.7 35 8.5 SSW 17 24 9 13 1008.9 1007.2 0.0
19/07:30am 22.9 18.5 6.6 35 8.5 SSW 19 26 10 14 1008.4 1006.7 0.0
19/07:00am 23.4 19.5 7.1 35 8.6 SSW 17 28 9 15 1008.0 1006.4 0.0
19/06:30am 24.1 20.4 8.1 36 8.6 SSW 17 28 9 15 1007.7 1006.1 0.0
19/06:00am 24.8 21.9 8.3 35 9.0 SSW 13 20 7 11 1007.4 1005.8 0.0
19/05:30am 25.6 21.6 8.1 33 9.5 S 19 30 10 16 1007.3 1005.7 0.0
19/05:00am 26.0 22.9 8.9 34 9.4 SSW 15 24 8 13 1007.1 1005.5 0.0
19/04:30am 26.0 24.5 13.2 45 7.6 SSW 13 17 7 9 1007.0 1005.4 0.0
19/04:00am 26.2 25.7 13.7 46 7.5 SSW 9 13 5 7 1006.9 1005.3 0.0
19/03:30am 26.8 26.2 13.5 44 7.9 S 9 11 5 6 1006.7 1005.1 0.0
19/03:00am 27.3 26.7 13.6 43 8.2 SE 9 11 5 6 1006.6 1005.0 0.0
19/02:30am 27.9 26.8 13.1 40 8.8 SSE 11 15 6 8 1006.6 1005.0 0.0
19/02:00am 28.3 27.4 12.6 38 9.3 S 9 13 5 7 1006.8 1005.2 0.0
19/01:30am 28.7 27.8 12.6 37 9.5 SSE 9 11 5 6 1006.5 1004.9 0.0
19/01:00am 29.4 28.4 12.3 34 10.1 SE 9 11 5 6 1006.3 1004.7 0.0
19/12:30am 30.1 29.4 12.1 33 10.6 ESE 7 11 4 6 1006.1 1004.5 0.0
19/12:00am 31.3 29.0 11.7 30 11.6 SSE 15 20 8 11 1005.8 1004.1 0.0
 
Date/Time
EDT
Temp
°C
App
Temp
°C
Dew
Point
°C
Rel
Hum
%
Delta-T
°C
Wind Press
QNH
hPa
Press
MSL
hPa
Rain since
9am
mm
Dir  Spd
km/h
Gust
km/h
Spd
kts
Gust
kts
18/11:30pm 31.9 30.2 10.0 26 12.6 SE 9 11 5 6 1005.8 1004.1 0.0
18/11:00pm 32.5 30.2 10.5 26 12.9 S 13 24 7 13 1005.6 1003.9 0.0
18/10:30pm 32.8 30.1 5.4 18 14.7 NNW 9 11 5 6 1005.5 1003.8 0.0
18/10:00pm 33.3 30.3 5.8 18 15.0 NNE 11 13 6 7 1005.4 1003.7 0.0
18/09:30pm 32.4 29.5 6.6 20 14.1 NE 11 13 6 7 1005.1 1003.4 0.0
18/09:00pm 33.6 32.9 6.8 19 14.9 CALM 0 0 0 0 1004.9 1003.2 0.0
18/08:37pm 33.7 31.1 7.6 20 14.6 SSW 11 20 6 11 1004.9 1003.2 0.0
18/08:30pm 32.7 28.7 8.9 23 13.5 SSW 20 44 11 24 1004.9 1003.2 0.0
18/08:21pm 33.2 27.1 9.9 24 13.5 W 32 69 17 37 1005.3 1003.6 0.0
18/08:19pm 35.1 28.8 7.2 18 15.6 W 30 69 16 37 1005.2 1003.5 0.0
18/08:18pm 36.1 30.1 5.4 15 16.8 WNW 26 69 14 37 1005.0 1003.3 0.0
18/08:00pm 37.1 34.3 5.2 14 17.6 NNW 9 11 5 6 1004.6 1002.9 0.0
18/07:30pm 38.0 33.8 3.7 12 18.5 NW 15 22 8 12 1004.1 1002.5 0.0
18/07:00pm 39.3 35.4 3.4 11 19.4 NW 13 19 7 10 1004.0 1002.4 0.0
18/06:30pm 39.8 35.2 3.8 11 19.6 NW 17 33 9 18 1004.0 1002.4 0.0
18/06:00pm 40.4 35.1 2.9 10 20.3 NW 20 32 11 17 1004.1 1002.5 0.0
18/05:30pm 39.8 34.6 3.8 11 19.6 NW 20 30 11 16 1004.2 1002.6 0.0
18/05:00pm 39.1 35.8 4.5 12 19.0 NNW 11 17 6 9 1004.5 1002.8 0.0
18/04:30pm 40.2 35.7 4.1 11 19.8 NNW 17 33 9 18 1004.7 1003.0 0.0
18/04:00pm 40.6 36.1 4.4 11 20.0 N 17 24 9 13 1005.1 1003.4 0.0
18/03:30pm 40.6 35.8 4.4 11 20.0 NW 19 41 10 22 1005.5 1003.8 0.0
18/03:00pm 40.0 34.5 4.0 11 19.7 NNW 22 41 12 22 1006.1 1004.5 0.0
18/02:30pm 38.8 33.0 4.3 12 18.8 NNW 24 35 13 19 1006.7 1005.1 0.0
18/02:00pm 39.9 35.0 5.1 12 19.4 NNW 20 37 11 20 1007.0 1005.4 0.0
18/01:30pm 39.3 32.8 4.7 12 19.0 N 28 41 15 22 1007.4 1005.8 0.0
18/01:00pm 38.5 32.3 4.1 12 18.7 NNW 26 39 14 21 1007.9 1006.3 0.0
18/12:30pm 37.7 31.2 4.6 13 18.0 N 28 44 15 24 1008.2 1006.6 0.0
18/12:00pm 37.8 31.7 4.7 13 18.1 N 26 41 14 22 1009.0 1007.3 0.0
18/11:30am 36.9 30.5 5.0 14 17.4 N 28 37 15 20 1009.5 1007.9 0.0
18/11:00am 35.8 29.4 5.1 15 16.7 N 28 41 15 22 1009.8 1008.2 0.0
18/10:30am 35.5 29.4 4.9 15 16.6 NNW 26 37 14 20 1009.9 1008.3 0.0
18/10:00am 34.0 28.4 5.5 17 15.5 N 24 35 13 19 1010.0 1008.4 0.0
18/09:30am 32.4 27.6 5.8 19 14.4 N 20 30 11 16 1010.0 1008.4 0.0
18/09:00am 29.7 25.4 5.1 21 13.0 N 17 24 9 13 1010.0 1008.4 0.0
18/08:30am 27.9 23.9 4.9 23 11.9 N 15 20 8 11 1009.9 1008.3 0.0
18/08:00am 27.3 23.2 4.4 23 11.8 NNE 15 20 8 11 1009.6 1008.0 0.0
18/07:30am 26.1 21.9 4.0 24 11.2 NNE 15 19 8 10 1009.3 1007.7 0.0
18/07:00am 26.1 21.9 4.0 24 11.2 NNE 15 19 8 10 1009.1 1007.4 0.0
18/06:30am 26.1 22.2 3.4 23 11.3 NNE 13 20 7 11 1008.8 1007.1 0.0
18/06:00am 26.9 22.6 3.4 22 11.8 NNE 15 22 8 12 1008.5 1006.8 0.0
18/05:30am 26.6 22.3 3.2 22 11.7 NE 15 20 8 11 1008.2 1006.6 0.0
18/05:00am 26.2 21.9 3.5 23 11.4 NE 15 19 8 10 1008.0 1006.4 0.0
18/04:30am 25.7 22.1 3.0 23 11.2 NE 11 13 6 7 1008.1 1006.5 0.0
18/04:00am 26.7 22.8 3.2 22 11.8 NE 13 15 7 8 1008.2 1006.6 0.0
18/03:30am 27.5 23.6 3.2 21 12.2 NE 13 17 7 9 1008.2 1006.6 0.0
18/03:00am 27.9 23.9 2.9 20 12.6 NE 13 17 7 9 1008.4 1006.7 0.0
18/02:30am 28.4 24.1 3.3 20 12.7 NE 15 19 8 10 1008.6 1006.9 0.0
18/02:00am 27.9 24.0 3.6 21 12.4 NE 13 17 7 9 1008.8 1007.1 0.0
18/01:30am 28.8 24.6 3.6 20 12.9 NE 15 19 8 10 1008.9 1007.2 0.0
18/01:00am 29.4 25.1 3.4 19 13.3 NE 15 19 8 10 1009.1 1007.4 0.0
18/12:30am 30.0 25.4 3.9 19 13.5 NE 17 22 9 12 1009.2 1007.5 0.0
18/12:00am 30.1 25.6 4.0 19 13.5 ENE 17 19 9 10 1009.3 1007.7 0.0
 
Date/Time
EDT
Temp
°C
App
Temp
°C
Dew
Point
°C
Rel
Hum
%
Delta-T
°C
Wind Press
QNH
hPa
Press
MSL
hPa
Rain since
9am
mm
Dir  Spd
km/h
Gust
km/h
Spd
kts
Gust
kts
17/11:30pm 30.6 26.5 4.4 19 13.7 ENE 15 19 8 10 1009.3 1007.7 0.0
17/11:00pm 31.0 27.0 4.7 19 13.9 ENE 15 19 8 10 1009.4 1007.8 0.0
17/10:30pm 30.5 27.7 5.0 20 13.5 E 9 11 5 6 1009.3 1007.7 0.0
17/10:00pm 31.1 27.8 4.8 19 13.9 ENE 11 13 6 7 1009.3 1007.7 0.0
17/09:30pm 31.1 27.8 4.8 19 13.9 ENE 11 11 6 6 1009.1 1007.4 0.0
17/09:00pm 32.4 30.0 5.1 18 14.6 SE 7 9 4 5 1008.8 1007.1 0.0
17/08:30pm 33.8 31.1 3.6 15 15.9 SE 7 9 4 5 1008.5 1006.8 0.0
17/08:00pm 34.8 32.0 3.4 14 16.6 SSE 7 7 4 4 1008.4 1006.7 0.0
17/07:30pm 35.8 33.0 3.1 13 17.2 SE 7 9 4 5 1008.1 1006.5 0.0
17/07:00pm 36.7 33.6 3.8 13 17.7 SSE 9 15 5 8 1008.1 1006.5 0.0
17/06:30pm 37.0 33.8 2.9 12 18.0 SE 9 15 5 8 1008.1 1006.5 0.0
17/06:00pm 37.3 34.1 3.1 12 18.2 ESE 9 17 5 9 1008.2 1006.6 0.0
17/05:30pm 37.4 33.5 3.2 12 18.2 W 13 22 7 12 1008.6 1006.9 0.0
17/05:00pm 36.6 32.8 3.7 13 17.6 SSW 13 20 7 11 1008.8 1007.1 0.0
17/04:30pm 36.9 33.3 2.8 12 18.0 SSW 11 24 6 13 1009.1 1007.4 0.0
17/04:00pm 37.8 34.5 4.7 13 18.1 W 11 20 6 11 1009.5 1007.9 0.0
17/03:30pm 38.1 35.4 3.8 12 18.5 SSW 7 19 4 10 1009.9 1008.3 0.0
17/03:00pm 37.7 33.6 4.6 13 18.1 W 15 32 8 17 1010.5 1008.9 0.0
17/02:30pm 37.0 32.1 4.0 13 17.8 WSW 19 26 10 14 1011.0 1009.4 0.0
17/02:00pm 37.2 34.4 5.3 14 17.5 WSW 9 17 5 9 1011.4 1009.8 0.0
17/01:30pm 36.3 33.4 4.6 14 17.2 NE 9 17 5 9 1011.7 1010.1 0.0
17/01:00pm 35.4 31.4 4.8 15 16.5 ENE 15 26 8 14 1012.1 1010.5 0.0
17/12:30pm 35.7 32.9 5.1 15 16.6 NNW 9 20 5 11 1012.8 1011.2 0.0
17/12:00pm 34.6 30.3 5.1 16 16.0 N 17 26 9 14 1013.2 1011.6 0.0
17/11:30am 34.9 30.6 5.4 16 16.1 N 17 24 9 13 1013.5 1011.9 0.0
17/11:00am 33.6 28.7 5.2 17 15.3 N 20 28 11 15 1013.7 1012.1 0.0
17/10:30am 32.6 27.9 5.2 18 14.7 N 19 26 10 14 1013.8 1012.2 0.0
17/10:00am 31.2 27.0 5.6 20 13.7 NNE 17 22 9 12 1013.9 1012.3 0.0
17/09:30am 30.1 26.4 6.1 22 12.9 NNE 15 20 8 11 1014.0 1012.4 0.0
17/09:00am 28.6 24.9 6.1 24 12.0 NE 15 20 8 11 1014.0 1012.4 0.0
17/08:30am 27.2 23.2 6.6 27 11.0 NE 17 24 9 13 1013.9 1012.3 0.0
17/08:00am 25.8 22.6 6.9 30 10.0 ENE 13 19 7 10 1013.7 1012.1 0.0
17/07:30am 24.2 21.4 6.9 33 9.1 ENE 11 15 6 8 1013.6 1012.0 0.0
17/07:00am 23.6 20.4 6.8 34 8.8 ENE 13 15 7 8 1013.2 1011.6 0.0
17/06:30am 23.7 20.5 6.9 34 8.8 ENE 13 19 7 10 1012.9 1011.3 0.0
17/06:00am 23.6 20.4 6.8 34 8.8 ENE 13 15 7 8 1012.6 1010.9 0.0
17/05:30am 24.0 20.9 7.2 34 8.9 ENE 13 15 7 8 1012.5 1010.8 0.0
17/05:00am 24.1 21.0 7.3 34 8.9 ENE 13 17 7 9 1012.5 1010.8 0.0
17/04:30am 23.6 20.9 7.3 35 8.6 E 11 15 6 8 1012.4 1010.7 0.0
17/04:00am 23.8 21.0 7.0 34 8.8 E 11 15 6 8 1012.5 1010.8 0.0

Other formats

Comma delimited format used in spreadsheet applications
http://www.bom.gov.au/fwo/IDN60801/IDN60801.94711.axf

JavaScript Object Notation format (JSON) in row-major order
http://www.bom.gov.au/fwo/IDN60801/IDN60801.94711.json

Data quality

Most of these data are generated automatically and are frequently updated. Quality checks on data are not normally performed. It is possible for incorrect values to appear. Refer to information at About Latest Weather Observations and please check the disclaimer before using these data.